Time;durP1;ratioP1;P1;durP2;ratioP2;P2;SDS_P1;SDS_P2;PMS_P1;PMS_P2;Temp;Humidity;BMP_temperature;BMP_pressure;BME280_temperature;BME280_humidity;BME280_pressure;Samples;Min_cycle;Max_cycle;Signal;HPM_P1;HPM_P2
2023/03/10 00:01:13;;;;;;;7.67;1.80;;;26.40;56.60;;;;;;4951788;28;20191;-74
2023/03/10 00:03:40;;;;;;;6.97;1.47;;;25.90;56.90;;;;;;4953220;28;20183;-69
2023/03/10 00:06:09;;;;;;;8.03;2.20;;;25.80;57.90;;;;;;4951103;28;20190;-70
2023/03/10 00:08:36;;;;;;;9.67;2.37;;;26.00;57.90;;;;;;4958074;28;20189;-69
2023/03/10 00:11:04;;;;;;;9.80;2.97;;;26.30;56.40;;;;;;4946108;28;20285;-74
2023/03/10 00:13:31;;;;;;;8.73;1.90;;;26.00;56.60;;;;;;4992475;28;20591;-69
2023/03/10 00:15:59;;;;;;;7.90;2.63;;;25.80;57.30;;;;;;4991777;28;20216;-71
2023/03/10 00:18:26;;;;;;;3.70;1.67;;;25.90;57.40;;;;;;4985574;28;20205;-66
2023/03/10 00:20:54;;;;;;;5.03;1.53;;;26.30;56.50;;;;;;4992697;28;20278;-69
2023/03/10 00:23:22;;;;;;;10.70;2.20;;;26.30;56.10;;;;;;4993577;28;20194;-67
2023/03/10 00:26:00;;;;;;;7.13;1.70;;;26.20;57.20;;;;;;4992234;28;20178;-67
2023/03/10 00:28:28;;;;;;;9.13;2.03;;;26.40;56.10;;;;;;4984375;28;20249;-66
2023/03/10 00:31:00;;;;;;;10.87;2.03;;;26.50;55.80;;;;;;4985144;28;20294;-67
2023/03/10 00:33:29;;;;;;;7.30;2.00;;;26.70;55.50;;;;;;4992797;28;20181;-71
2023/03/10 00:36:08;;;;;;;8.93;1.97;;;27.00;54.70;;;;;;4982367;28;20222;-65
2023/03/10 00:38:37;;;;;;;6.20;1.43;;;26.90;55.50;;;;;;4983222;28;20193;-66
2023/03/10 00:41:07;;;;;;;8.10;1.73;;;26.70;56.30;;;;;;4990834;28;20269;-68
2023/03/10 00:43:35;;;;;;;8.43;1.57;;;26.60;55.70;;;;;;4994987;28;20656;-67
2023/03/10 00:46:03;;;;;;;8.77;2.57;;;26.80;56.50;;;;;;4995864;28;20186;-65
2023/03/10 00:48:31;;;;;;;9.47;4.00;;;26.90;55.60;;;;;;4990572;28;20723;-68
2023/03/10 00:50:59;;;;;;;6.00;2.20;;;26.30;57.30;;;;;;4992979;28;20187;-67
2023/03/10 00:53:26;;;;;;;11.70;2.33;;;26.60;56.40;;;;;;4993329;28;20182;-67
2023/03/10 00:56:15;;;;;;;14.40;2.87;;;26.30;57.60;;;;;;4982880;28;20210;-67
2023/03/10 00:58:44;;;;;;;9.37;1.93;;;26.40;58.00;;;;;;4977902;28;20244;-73
2023/03/10 01:01:25;;;;;;;6.63;1.77;;;26.70;57.00;;;;;;4990096;28;20644;-68
2023/03/10 01:03:55;;;;;;;12.20;2.00;;;26.80;56.40;;;;;;4970015;28;20213;-72
2023/03/10 01:06:23;;;;;;;6.53;1.53;;;26.70;56.50;;;;;;4990529;28;20235;-67
2023/03/10 01:08:50;;;;;;;6.37;1.70;;;26.30;57.80;;;;;;4994356;28;20233;-69
2023/03/10 01:11:20;;;;;;;6.27;1.53;;;25.90;59.10;;;;;;4983868;28;20190;-71
2023/03/10 01:13:47;;;;;;;5.13;1.60;;;25.70;60.10;;;;;;4994436;28;20347;-71
2023/03/10 01:16:15;;;;;;;6.73;2.00;;;25.80;59.90;;;;;;4988132;28;20201;-71
2023/03/10 01:18:43;;;;;;;4.33;1.33;;;25.50;60.40;;;;;;4985057;28;20186;-74
2023/03/10 01:21:21;;;;;;;9.70;1.50;;;25.40;60.90;;;;;;4983162;28;20614;-67
2023/03/10 01:23:50;;;;;;;6.83;1.60;;;25.40;61.20;;;;;;4994211;28;20559;-71
2023/03/10 01:26:18;;;;;;;7.47;3.20;;;25.60;61.50;;;;;;4994070;28;20193;-72
2023/03/10 01:28:46;;;;;;;13.63;9.60;;;26.10;60.00;;;;;;4995137;28;20182;-71
2023/03/10 01:31:13;;;;;;;8.27;2.30;;;26.20;59.60;;;;;;4983915;28;20265;-70
2023/03/10 01:33:41;;;;;;;5.90;1.50;;;26.30;59.50;;;;;;4973070;28;20174;-70
2023/03/10 01:36:17;;;;;;;4.00;1.70;;;26.30;58.80;;;;;;4988468;28;20298;-68
2023/03/10 01:38:46;;;;;;;8.63;1.90;;;26.00;59.50;;;;;;4995077;28;20183;-73
2023/03/10 01:41:13;;;;;;;6.77;1.60;;;25.90;59.90;;;;;;4993927;28;20543;-75
2023/03/10 01:43:45;;;;;;;4.67;1.20;;;26.20;59.70;;;;;;4992816;28;20531;-71
2023/03/10 01:46:31;;;;;;;6.90;1.60;;;26.30;58.90;;;;;;4992198;28;20189;-74
2023/03/10 01:49:12;;;;;;;6.93;1.87;;;26.00;59.60;;;;;;4987199;28;20548;-70
2023/03/10 01:51:43;;;;;;;11.63;1.83;;;25.80;60.10;;;;;;4991992;28;20172;-74
2023/03/10 01:54:18;;;;;;;8.37;1.90;;;25.80;60.60;;;;;;4996675;28;20221;-74
2023/03/10 01:56:47;;;;;;;3.73;1.47;;;25.90;61.10;;;;;;4991158;28;20691;-73
2023/03/10 01:59:15;;;;;;;6.83;1.63;;;26.00;60.30;;;;;;4992569;28;20233;-69
2023/03/10 02:01:42;;;;;;;2.93;1.20;;;26.60;58.90;;;;;;4993212;28;20522;-72
2023/03/10 02:04:22;;;;;;;8.97;1.90;;;27.30;57.20;;;;;;4983915;28;20257;-74
2023/03/10 02:06:50;;;;;;;4.30;1.10;;;27.20;57.20;;;;;;4985300;28;20186;-73
2023/03/10 02:09:19;;;;;;;5.83;1.50;;;27.70;55.40;;;;;;4979424;28;20203;-72
2023/03/10 02:11:48;;;;;;;4.97;1.60;;;27.80;55.50;;;;;;4995911;28;20225;-71
2023/03/10 02:14:17;;;;;;;3.23;1.43;;;27.80;55.20;;;;;;4990207;28;20281;-76
2023/03/10 02:16:44;;;;;;;6.87;1.63;;;28.10;54.70;;;;;;4995062;28;20209;-73
2023/03/10 02:19:29;;;;;;;6.20;2.07;;;28.00;54.60;;;;;;4993688;28;20182;-71
2023/03/10 02:22:10;;;;;;;4.90;1.40;;;28.30;53.90;;;;;;4993169;28;20182;-75
2023/03/10 02:24:59;;;;;;;5.63;3.40;;;28.20;54.30;;;;;;4990852;28;20182;-78
2023/03/10 02:27:38;;;;;;;8.97;2.93;;;28.20;54.20;;;;;;4985553;28;20241;-72
2023/03/10 02:30:15;;;;;;;9.63;2.40;;;27.70;55.50;;;;;;4982605;28;20173;-73
2023/03/10 02:32:46;;;;;;;4.97;1.60;;;27.10;57.80;;;;;;4988267;28;20272;-72
2023/03/10 02:35:14;;;;;;;8.50;1.50;;;26.90;58.20;;;;;;4993005;28;20520;-75
2023/03/10 02:37:42;;;;;;;4.00;1.43;;;26.80;58.30;;;;;;4991114;28;20257;-68
2023/03/10 02:40:32;;;;;;;3.50;1.40;;;26.80;59.20;;;;;;4994069;28;20540;-76
2023/03/10 02:43:33;;;;;;;9.40;1.80;;;27.00;58.70;;;;;;4983306;28;20307;-74
2023/03/10 02:46:04;;;;;;;4.20;1.30;;;27.20;58.50;;;;;;4992573;28;20656;-73
2023/03/10 02:48:39;;;;;;;6.80;1.37;;;27.30;56.80;;;;;;4989242;28;20559;-74
2023/03/10 02:51:20;;;;;;;4.07;1.23;;;27.80;56.40;;;;;;4992377;28;20225;-75
2023/03/10 02:53:48;;;;;;;5.37;1.80;;;28.10;55.30;;;;;;4993985;28;20332;-75
2023/03/10 02:56:15;;;;;;;5.03;1.57;;;28.30;55.00;;;;;;4991978;28;20207;-78
2023/03/10 02:58:43;;;;;;;4.50;1.30;;;28.30;54.40;;;;;;4988602;28;20640;-73
2023/03/10 03:01:10;;;;;;;3.23;1.17;;;28.00;54.90;;;;;;4994015;28;20178;-70
2023/03/10 03:03:37;;;;;;;7.33;1.77;;;28.30;54.60;;;;;;4986400;28;20264;-71
2023/03/10 03:06:05;;;;;;;6.43;1.40;;;28.30;54.40;;;;;;4995055;28;20193;-67
2023/03/10 03:08:33;;;;;;;4.17;1.20;;;28.40;53.80;;;;;;4990537;28;20338;-72
2023/03/10 03:11:00;;;;;;;6.37;1.50;;;28.40;53.70;;;;;;4989822;28;20201;-66
2023/03/10 03:13:27;;;;;;;6.17;1.50;;;28.60;53.70;;;;;;4994313;28;20685;-66
2023/03/10 03:15:55;;;;;;;6.60;1.47;;;28.30;54.10;;;;;;4985296;28;20209;-71
2023/03/10 03:18:22;;;;;;;7.30;1.87;;;28.60;54.10;;;;;;4988446;28;20536;-65
2023/03/10 03:20:50;;;;;;;7.73;2.00;;;29.20;52.90;;;;;;4984373;28;20530;-66
2023/03/10 03:23:17;;;;;;;8.95;1.85;;;29.30;52.30;;;;;;4991238;28;20189;-70
2023/03/10 03:25:45;;;;;;;5.70;1.60;;;29.30;52.30;;;;;;4999685;28;20336;-77
2023/03/10 03:28:12;;;;;;;1.90;1.00;;;29.30;51.40;;;;;;4986555;28;20185;-74
2023/03/10 03:30:40;;;;;;;3.35;1.20;;;29.00;52.00;;;;;;4997265;28;20177;-71
2023/03/10 03:33:08;;;;;;;6.95;1.45;;;28.90;53.00;;;;;;4985102;28;20581;-73
2023/03/10 03:35:37;;;;;;;6.50;1.57;;;28.80;53.00;;;;;;4986593;28;20189;-76
2023/03/10 03:38:05;;;;;;;4.82;1.35;;;28.60;53.80;;;;;;4991581;28;20210;-70
2023/03/10 03:40:35;;;;;;;7.15;1.42;;;28.70;53.10;;;;;;4997475;28;20635;-74
2023/03/10 03:43:04;;;;;;;7.57;1.60;;;28.50;53.40;;;;;;4997298;28;20193;-70
2023/03/10 03:45:32;;;;;;;9.67;1.50;;;28.80;53.70;;;;;;4994054;28;20254;-74
2023/03/10 03:47:59;;;;;;;4.40;1.37;;;28.90;52.10;;;;;;4991735;28;20191;-77
2023/03/10 03:50:27;;;;;;;4.45;1.00;;;29.30;50.80;;;;;;4994800;28;20186;-73
2023/03/10 03:52:54;;;;;;;7.30;1.20;;;29.00;52.00;;;;;;4983564;28;20181;-74
2023/03/10 03:55:22;;;;;;;5.25;1.42;;;29.10;51.00;;;;;;4994686;28;20244;-69
2023/03/10 03:57:49;;;;;;;5.57;1.15;;;28.80;52.00;;;;;;4994704;28;20248;-69
2023/03/10 04:00:22;;;;;;;5.28;1.08;;;28.60;52.30;;;;;;4987411;28;20179;-68
2023/03/10 04:02:50;;;;;;;5.43;1.20;;;28.60;52.70;;;;;;4992337;28;20269;-67
2023/03/10 04:05:17;;;;;;;10.02;1.63;;;28.90;52.30;;;;;;4988363;28;20178;-70
2023/03/10 04:07:47;;;;;;;3.95;1.20;;;29.40;51.10;;;;;;4993488;28;20186;-78
2023/03/10 04:10:17;;;;;;;3.95;1.23;;;29.20;50.90;;;;;;4992149;28;20301;-67
2023/03/10 04:12:44;;;;;;;7.18;1.23;;;29.30;51.00;;;;;;4981208;28;20230;-68
2023/03/10 04:15:12;;;;;;;4.20;1.20;;;29.10;51.40;;;;;;4993811;28;20194;-65
2023/03/10 04:17:39;;;;;;;4.93;1.00;;;29.00;52.20;;;;;;4977094;28;20316;-68
2023/03/10 04:20:08;;;;;;;5.97;1.83;;;28.40;53.20;;;;;;4991245;28;20185;-71
2023/03/10 04:22:36;;;;;;;7.72;1.48;;;28.10;53.90;;;;;;4996139;28;20247;-73
2023/03/10 04:25:05;;;;;;;7.70;1.50;;;28.80;53.00;;;;;;4988529;28;20195;-76
2023/03/10 04:27:32;;;;;;;4.40;1.50;;;28.80;52.80;;;;;;4993661;28;20232;-70
2023/03/10 04:30:00;;;;;;;4.95;1.33;;;28.40;53.60;;;;;;4991639;28;20581;-67
2023/03/10 04:32:27;;;;;;;6.55;1.60;;;28.70;53.90;;;;;;4996698;28;20178;-73
2023/03/10 04:34:54;;;;;;;6.93;1.40;;;29.00;52.80;;;;;;4992378;28;20198;-72
2023/03/10 04:37:22;;;;;;;4.72;1.42;;;29.00;52.20;;;;;;4996474;28;20284;-73
2023/03/10 04:39:49;;;;;;;4.97;1.30;;;29.00;51.50;;;;;;4990924;28;20653;-67
2023/03/10 04:42:16;;;;;;;7.23;1.30;;;28.60;52.90;;;;;;4986473;28;20278;-70
2023/03/10 04:44:44;;;;;;;6.15;1.52;;;29.00;51.50;;;;;;4992797;28;20660;-75
2023/03/10 04:47:11;;;;;;;9.87;1.60;;;29.20;51.20;;;;;;4989580;28;20645;-72
2023/03/10 04:49:39;;;;;;;8.35;1.30;;;28.90;52.10;;;;;;4981092;28;20190;-69
2023/03/10 04:52:06;;;;;;;7.22;1.45;;;28.90;52.40;;;;;;4993958;28;20186;-67
2023/03/10 04:54:34;;;;;;;7.03;1.20;;;29.20;52.10;;;;;;4991100;28;20256;-67
2023/03/10 04:57:01;;;;;;;5.95;1.40;;;29.10;52.20;;;;;;4991374;28;20590;-72
2023/03/10 04:59:28;;;;;;;10.43;1.60;;;28.50;54.10;;;;;;4997721;28;20187;-72
2023/03/10 05:01:56;;;;;;;6.85;1.50;;;28.70;54.50;;;;;;4988056;28;20586;-77
2023/03/10 05:04:23;;;;;;;10.53;2.10;;;29.20;53.10;;;;;;4990381;28;20186;-81
2023/03/10 05:06:52;;;;;;;5.57;1.63;;;29.80;51.20;;;;;;4987876;28;20198;-78
2023/03/10 05:09:19;;;;;;;4.95;1.35;;;29.80;51.00;;;;;;4989124;28;20202;-78
2023/03/10 05:11:46;;;;;;;6.32;1.67;;;29.70;50.90;;;;;;4986972;28;20304;-74
2023/03/10 05:14:14;;;;;;;6.07;1.70;;;28.80;53.30;;;;;;4988956;28;20209;-76
2023/03/10 05:16:41;;;;;;;9.80;1.77;;;29.40;51.20;;;;;;4985009;28;20217;-76
2023/03/10 05:19:09;;;;;;;6.68;1.75;;;29.40;50.60;;;;;;4989972;28;20644;-76
2023/03/10 05:21:37;;;;;;;9.05;1.70;;;29.80;50.00;;;;;;4985254;28;20612;-77
2023/03/10 05:24:04;;;;;;;6.10;1.60;;;29.80;49.80;;;;;;4985592;28;20830;-79
2023/03/10 05:26:31;;;;;;;5.35;1.48;;;29.70;49.90;;;;;;4990734;28;20228;-79
2023/03/10 05:28:59;;;;;;;7.70;1.73;;;29.40;50.80;;;;;;4984523;28;20193;-77
2023/03/10 05:31:26;;;;;;;9.05;1.60;;;29.60;50.70;;;;;;4991788;28;20660;-68
2023/03/10 05:33:54;;;;;;;8.50;1.52;;;29.40;51.40;;;;;;4994725;28;20185;-70
2023/03/10 05:36:21;;;;;;;6.80;1.52;;;29.00;52.60;;;;;;4991437;28;20198;-75
2023/03/10 05:38:49;;;;;;;5.05;1.58;;;29.30;51.50;;;;;;4993138;28;20174;-73
2023/03/10 05:41:16;;;;;;;8.50;1.98;;;29.30;52.00;;;;;;4984308;28;20607;-74
2023/03/10 05:43:44;;;;;;;7.72;1.65;;;29.40;50.80;;;;;;4987408;28;20193;-71
2023/03/10 05:46:12;;;;;;;8.40;1.42;;;29.70;50.40;;;;;;4988068;28;20301;-66
2023/03/10 05:48:39;;;;;;;5.95;1.45;;;29.30;51.40;;;;;;4988085;28;20265;-67
2023/03/10 05:51:11;;;;;;;7.70;1.67;;;30.10;49.10;;;;;;4989267;28;20185;-66
2023/03/10 05:53:39;;;;;;;11.40;2.20;;;29.20;51.50;;;;;;4985532;28;20185;-64
2023/03/10 05:56:13;;;;;;;6.43;1.35;;;29.40;51.00;;;;;;4991098;28;20213;-67
2023/03/10 05:58:40;;;;;;;4.55;1.48;;;29.80;49.80;;;;;;4991619;28;20186;-66
2023/03/10 06:01:09;;;;;;;6.85;1.50;;;29.50;50.50;;;;;;4990058;28;20264;-67
2023/03/10 06:03:37;;;;;;;6.80;1.40;;;28.90;51.30;;;;;;4989954;28;20534;-69
2023/03/10 06:06:06;;;;;;;7.07;1.57;;;28.80;52.00;;;;;;4989354;28;20185;-68
2023/03/10 06:08:34;;;;;;;4.95;1.65;;;29.20;50.90;;;;;;4984487;28;20243;-74
2023/03/10 06:11:02;;;;;;;5.83;1.90;;;28.90;51.80;;;;;;4990654;28;20192;-69
2023/03/10 06:13:30;;;;;;;9.07;1.50;;;28.80;52.40;;;;;;4991713;28;20243;-67
2023/03/10 06:16:00;;;;;;;7.27;1.77;;;28.40;53.00;;;;;;4990572;28;20198;-72
2023/03/10 06:18:28;;;;;;;6.90;1.70;;;28.90;52.50;;;;;;4990867;28;20182;-69
2023/03/10 06:20:56;;;;;;;6.60;1.38;;;28.90;51.50;;;;;;4995656;28;20186;-74
2023/03/10 06:23:24;;;;;;;7.67;1.50;;;29.50;49.70;;;;;;4999028;28;20196;-70
2023/03/10 06:26:05;;;;;;;7.97;1.50;;;28.50;51.70;;;;;;4997698;28;20188;-71
2023/03/10 06:28:35;;;;;;;7.43;1.50;;;28.50;52.70;;;;;;4999250;28;20750;-76
2023/03/10 06:31:06;;;;;;;9.10;1.80;;;28.60;52.30;;;;;;4998465;28;20546;-67
2023/03/10 06:33:34;;;;;;;9.80;1.90;;;28.40;52.60;;;;;;4997079;28;20663;-68
2023/03/10 06:36:01;;;;;;;10.07;1.70;;;28.30;53.50;;;;;;4996062;28;20212;-65
2023/03/10 06:38:29;;;;;;;8.63;1.70;;;28.40;52.70;;;;;;4999474;28;20178;-69
2023/03/10 06:40:57;;;;;;;11.80;2.47;;;28.40;53.10;;;;;;4998209;28;20675;-68
2023/03/10 06:43:25;;;;;;;4.70;1.60;;;28.70;53.10;;;;;;4997854;28;20209;-69
2023/03/10 06:45:52;;;;;;;7.23;1.90;;;29.20;51.50;;;;;;4986077;28;20182;-72
2023/03/10 06:48:19;;;;;;;7.47;1.80;;;29.20;51.00;;;;;;4998648;28;20231;-70
2023/03/10 06:50:48;;;;;;;7.23;1.67;;;28.70;52.40;;;;;;4998268;28;20254;-77
2023/03/10 06:53:18;;;;;;;9.33;1.80;;;28.50;53.20;;;;;;4998783;28;20316;-75
2023/03/10 06:56:05;;;;;;;7.87;1.67;;;28.30;53.80;;;;;;4996901;28;20553;-75
2023/03/10 06:58:35;;;;;;;6.13;1.80;;;27.90;54.90;;;;;;4996103;28;20220;-73
2023/03/10 07:01:03;;;;;;;5.83;1.40;;;28.20;53.80;;;;;;4997962;28;20181;-68
2023/03/10 07:03:31;;;;;;;9.33;1.90;;;28.20;54.00;;;;;;4996475;28;20186;-67
2023/03/10 07:05:59;;;;;;;7.47;2.10;;;28.20;53.60;;;;;;4997979;28;20185;-66
2023/03/10 07:08:27;;;;;;;10.17;2.67;;;27.60;54.90;;;;;;4998028;28;20640;-66
2023/03/10 07:10:55;;;;;;;9.83;2.73;;;27.80;54.10;;;;;;4998117;28;20174;-65
2023/03/10 07:13:23;;;;;;;8.77;1.70;;;27.50;55.10;;;;;;4998648;28;20229;-65
2023/03/10 07:15:50;;;;;;;9.00;1.73;;;27.50;55.10;;;;;;4997876;28;20244;-76
2023/03/10 07:18:18;;;;;;;8.07;2.10;;;27.20;55.80;;;;;;4997982;28;20542;-69
2023/03/10 07:20:46;;;;;;;6.80;1.73;;;27.30;55.50;;;;;;4997061;28;20193;-74
2023/03/10 07:23:15;;;;;;;5.93;1.90;;;27.50;55.10;;;;;;4991814;28;20223;-71
2023/03/10 07:25:43;;;;;;;4.23;1.60;;;27.00;56.00;;;;;;4997931;28;20260;-75
2023/03/10 07:28:10;;;;;;;8.70;1.70;;;26.90;56.40;;;;;;4995534;28;20292;-67
2023/03/10 07:30:38;;;;;;;7.47;1.90;;;26.90;57.00;;;;;;4996939;28;20695;-69
2023/03/10 07:33:06;;;;;;;10.00;1.97;;;26.90;57.40;;;;;;4993411;28;20277;-66
2023/03/10 07:35:33;;;;;;;16.83;2.27;;;27.00;56.70;;;;;;4991917;28;20652;-65
2023/03/10 07:38:00;;;;;;;8.27;2.03;;;26.40;58.20;;;;;;4994514;28;20210;-67
2023/03/10 07:40:28;;;;;;;11.53;2.03;;;26.50;58.30;;;;;;4991376;28;20178;-65
2023/03/10 07:42:56;;;;;;;12.27;2.37;;;26.30;59.40;;;;;;4994762;28;20189;-68
2023/03/10 07:45:24;;;;;;;10.67;2.00;;;26.20;60.00;;;;;;4995120;28;20182;-67
2023/03/10 07:47:53;;;;;;;10.10;1.90;;;25.40;61.90;;;;;;4991525;28;20616;-66
2023/03/10 07:50:21;;;;;;;9.20;2.00;;;25.20;62.80;;;;;;4989774;28;20182;-68
2023/03/10 07:52:48;;;;;;;11.90;2.20;;;24.90;64.00;;;;;;4988703;28;20201;-66
2023/03/10 07:55:16;;;;;;;6.73;1.37;;;24.80;64.10;;;;;;4992864;28;20222;-67
2023/03/10 07:57:43;;;;;;;8.07;2.10;;;24.70;64.80;;;;;;4992411;28;20217;-70
2023/03/10 08:00:11;;;;;;;8.97;1.80;;;24.60;64.80;;;;;;4988198;28;20273;-67
2023/03/10 08:02:39;;;;;;;9.10;2.10;;;24.60;65.40;;;;;;4986159;28;20183;-68
2023/03/10 08:05:08;;;;;;;8.40;2.20;;;24.60;65.30;;;;;;4983169;28;20190;-67
2023/03/10 08:07:35;;;;;;;10.20;2.17;;;24.60;65.50;;;;;;4989406;28;20604;-66
2023/03/10 08:10:03;;;;;;;8.83;1.70;;;24.40;65.80;;;;;;4986427;28;20645;-64
2023/03/10 08:12:30;;;;;;;12.57;2.10;;;24.30;66.10;;;;;;4987996;28;20268;-64
2023/03/10 08:14:58;;;;;;;12.70;2.37;;;24.30;66.30;;;;;;4987597;28;20637;-71
2023/03/10 08:17:29;;;;;;;13.47;1.97;;;24.30;66.70;;;;;;4987179;28;20214;-65
2023/03/10 08:19:57;;;;;;;11.43;2.57;;;24.10;66.90;;;;;;4986578;28;20210;-65
2023/03/10 08:22:25;;;;;;;10.80;2.07;;;24.10;67.30;;;;;;4989154;28;20572;-64
2023/03/10 08:24:54;;;;;;;11.03;2.20;;;24.10;67.50;;;;;;4993584;28;20198;-68
2023/03/10 08:27:22;;;;;;;13.73;2.27;;;24.00;67.50;;;;;;4981573;28;20185;-67
2023/03/10 08:29:49;;;;;;;9.57;2.20;;;24.00;67.90;;;;;;4982534;28;20180;-66
2023/03/10 08:32:18;;;;;;;11.83;2.07;;;24.00;67.70;;;;;;5001125;28;20247;-77
2023/03/10 08:34:46;;;;;;;12.03;2.77;;;24.00;67.60;;;;;;5005183;28;20623;-69
2023/03/10 08:37:14;;;;;;;17.10;2.37;;;24.00;67.80;;;;;;5003996;28;20554;-71
2023/03/10 08:39:41;;;;;;;10.83;2.10;;;23.90;67.50;;;;;;4993640;28;20173;-74
2023/03/10 08:42:14;;;;;;;12.90;2.40;;;23.90;67.80;;;;;;4985555;28;20189;-67
2023/03/10 08:44:42;;;;;;;9.63;2.10;;;23.90;68.00;;;;;;5000326;28;20224;-73
2023/03/10 08:47:09;;;;;;;8.97;2.07;;;23.90;68.40;;;;;;4999853;28;20197;-73
2023/03/10 08:49:36;;;;;;;11.57;1.93;;;23.80;68.70;;;;;;4999886;28;20181;-75
2023/03/10 08:52:06;;;;;;;13.57;2.07;;;23.80;68.70;;;;;;5001066;28;20268;-78
2023/03/10 08:54:33;;;;;;;10.23;2.00;;;23.80;68.90;;;;;;4981389;28;20171;-78
2023/03/10 08:57:01;;;;;;;14.90;2.43;;;23.80;69.00;;;;;;4993332;28;20228;-69
2023/03/10 08:59:28;;;;;;;11.53;2.30;;;23.80;69.10;;;;;;4993908;28;20203;-76
2023/03/10 09:01:56;;;;;;;16.70;2.10;;;23.80;69.20;;;;;;4989602;28;20202;-68
2023/03/10 09:04:23;;;;;;;9.67;1.97;;;23.80;69.00;;;;;;4998701;28;20182;-67
2023/03/10 09:06:51;;;;;;;11.03;2.20;;;23.80;69.00;;;;;;4993050;28;20182;-70
2023/03/10 09:09:18;;;;;;;8.00;1.70;;;23.70;68.80;;;;;;4989489;28;20186;-68
2023/03/10 09:11:46;;;;;;;11.53;2.20;;;23.80;68.80;;;;;;5005948;28;20228;-67
2023/03/10 09:14:17;;;;;;;10.13;1.87;;;23.80;69.00;;;;;;5013506;28;20659;-66
2023/03/10 09:16:45;;;;;;;16.43;2.03;;;23.70;69.00;;;;;;5000936;28;20225;-66
2023/03/10 09:19:12;;;;;;;12.10;2.00;;;23.70;68.90;;;;;;5013547;28;20169;-65
2023/03/10 09:21:41;;;;;;;12.60;2.00;;;23.70;68.90;;;;;;5013189;28;20246;-66
2023/03/10 09:24:09;;;;;;;7.13;1.80;;;23.70;68.80;;;;;;4981925;28;20236;-65
2023/03/10 09:26:37;;;;;;;9.60;2.10;;;23.70;68.70;;;;;;5007089;28;20580;-65
2023/03/10 09:29:05;;;;;;;13.77;2.63;;;23.70;68.80;;;;;;5012846;28;20173;-65
2023/03/10 09:31:35;;;;;;;9.27;2.37;;;23.70;69.00;;;;;;5001357;28;20188;-66
2023/03/10 09:34:03;;;;;;;11.20;2.03;;;23.70;69.40;;;;;;5006095;28;20528;-64
2023/03/10 09:36:31;;;;;;;11.60;1.97;;;23.70;69.80;;;;;;5000866;28;20644;-67
2023/03/10 09:38:59;;;;;;;14.07;2.60;;;23.70;69.50;;;;;;4998410;28;20193;-65
2023/03/10 09:41:26;;;;;;;10.40;1.97;;;23.70;69.50;;;;;;5000453;28;20191;-66
2023/03/10 09:44:03;;;;;;;11.97;2.00;;;23.70;69.40;;;;;;5012643;28;20659;-65
2023/03/10 09:46:51;;;;;;;12.70;2.17;;;23.70;69.50;;;;;;5008180;28;20189;-66
2023/03/10 09:49:19;;;;;;;10.90;2.10;;;23.70;69.80;;;;;;5002496;28;20189;-66
2023/03/10 09:51:50;;;;;;;21.57;2.30;;;23.60;69.80;;;;;;5009890;28;20280;-67
2023/03/10 09:54:27;;;;;;;11.33;1.90;;;23.70;69.70;;;;;;5009565;28;20592;-65
2023/03/10 09:56:58;;;;;;;15.83;2.33;;;23.60;69.80;;;;;;5002140;28;20224;-66
2023/03/10 09:59:40;;;;;;;18.30;2.73;;;23.60;70.30;;;;;;5010975;28;20607;-65
2023/03/10 10:02:33;;;;;;;12.63;2.60;;;23.60;70.40;;;;;;4993553;28;20257;-67
2023/03/10 10:05:10;;;;;;;12.43;2.40;;;23.60;70.60;;;;;;4971676;28;20651;-65
2023/03/10 10:07:54;;;;;;;21.30;3.20;;;23.60;70.80;;;;;;4993577;28;20173;-65
2023/03/10 10:10:28;;;;;;;10.37;2.10;;;23.60;71.00;;;;;;4991375;28;20193;-65
2023/03/10 10:13:01;;;;;;;18.37;2.60;;;23.60;71.00;;;;;;5009541;28;20212;-67
2023/03/10 10:15:31;;;;;;;13.10;2.87;;;23.60;71.00;;;;;;5010956;28;20271;-66
2023/03/10 10:18:07;;;;;;;17.43;2.63;;;23.50;71.10;;;;;;4997445;28;20221;-69
2023/03/10 10:21:04;;;;;;;15.53;2.63;;;23.60;71.00;;;;;;5009865;28;20690;-66
2023/03/10 10:23:48;;;;;;;9.20;1.97;;;23.60;71.00;;;;;;4987885;28;20199;-66
2023/03/10 10:26:18;;;;;;;12.73;2.50;;;23.60;71.20;;;;;;5012095;28;20188;-64
2023/03/10 10:28:59;;;;;;;11.87;2.50;;;23.60;71.50;;;;;;5000567;28;21010;-65
2023/03/10 10:31:29;;;;;;;14.80;2.17;;;23.60;71.50;;;;;;4993406;28;20185;-65
2023/03/10 10:34:00;;;;;;;7.63;2.20;;;23.60;71.60;;;;;;4989492;28;20204;-66
2023/03/10 10:36:36;;;;;;;9.03;2.30;;;23.50;71.80;;;;;;4993171;28;20198;-66
2023/03/10 10:39:20;;;;;;;11.80;2.70;;;23.50;71.80;;;;;;5008028;28;20197;-67
2023/03/10 10:41:47;;;;;;;11.47;2.30;;;23.60;71.80;;;;;;4995673;28;20184;-66
2023/03/10 10:44:16;;;;;;;11.50;1.97;;;23.60;71.80;;;;;;5002242;28;20276;-66
2023/03/10 10:46:57;;;;;;;10.00;2.33;;;23.50;72.20;;;;;;4996723;28;21285;-67
2023/03/10 10:49:27;;;;;;;15.63;3.37;;;23.50;72.30;;;;;;4984545;28;20193;-65
2023/03/10 10:52:17;;;;;;;11.83;2.50;;;23.50;72.30;;;;;;4990705;28;20540;-65
2023/03/10 10:54:58;;;;;;;13.77;2.47;;;23.50;72.30;;;;;;4989078;28;20190;-66
2023/03/10 10:57:31;;;;;;;13.03;2.23;;;23.50;72.30;;;;;;4986601;28;20214;-68
2023/03/10 11:00:24;;;;;;;11.20;2.60;;;23.40;72.60;;;;;;4992574;28;20216;-67
2023/03/10 11:02:52;;;;;;;13.23;2.60;;;23.40;72.70;;;;;;4987727;28;20177;-66
2023/03/10 11:05:23;;;;;;;12.37;2.40;;;23.50;72.80;;;;;;4989704;28;20255;-65
2023/03/10 11:07:51;;;;;;;17.43;2.90;;;23.40;73.10;;;;;;4987413;28;20260;-65
2023/03/10 11:10:25;;;;;;;14.63;3.20;;;23.40;73.20;;;;;;4990789;28;20200;-65
2023/03/10 11:13:13;;;;;;;14.00;2.60;;;23.50;73.40;;;;;;4989014;28;20225;-64
2023/03/10 11:15:54;;;;;;;17.43;3.03;;;23.40;73.40;;;;;;4981342;28;20206;-66
2023/03/10 11:18:26;;;;;;;17.03;2.67;;;23.40;73.60;;;;;;4985544;28;20596;-65
2023/03/10 11:21:15;;;;;;;13.83;2.37;;;23.40;73.80;;;;;;4991022;28;20198;-67
2023/03/10 11:23:51;;;;;;;15.33;3.10;;;23.40;73.80;;;;;;4988921;28;20186;-67
2023/03/10 11:26:49;;;;;;;13.80;2.33;;;23.40;73.80;;;;;;4989342;28;20596;-67
2023/03/10 11:29:32;;;;;;;19.33;5.60;;;23.40;74.00;;;;;;4993001;28;20173;-66
2023/03/10 11:32:07;;;;;;;11.17;3.57;;;23.40;74.10;;;;;;4991640;28;20672;-66
2023/03/10 11:34:45;;;;;;;17.47;3.03;;;23.30;74.10;;;;;;4988503;28;20241;-67
2023/03/10 11:37:38;;;;;;;11.20;2.90;;;23.30;74.20;;;;;;4990280;28;20216;-66
2023/03/10 11:40:33;;;;;;;11.10;4.47;;;23.30;74.20;;;;;;4994280;28;20182;-65
2023/03/10 11:43:42;;;;;;;15.90;3.47;;;23.30;74.50;;;;;;4994301;28;20893;-67
2023/03/10 11:46:28;;;;;;;12.77;2.60;;;23.30;74.40;;;;;;4995707;28;20588;-67
2023/03/10 11:49:13;;;;;;;10.77;2.57;;;23.30;74.60;;;;;;4994522;28;20209;-67
2023/03/10 11:51:52;;;;;;;19.83;3.20;;;23.30;74.60;;;;;;4993691;28;20186;-67
2023/03/10 11:54:24;;;;;;;17.87;3.20;;;23.30;74.80;;;;;;4994003;28;20181;-65
2023/03/10 11:56:52;;;;;;;14.90;2.60;;;23.40;74.80;;;;;;4993700;28;20210;-65
2023/03/10 11:59:28;;;;;;;18.27;3.50;;;23.30;74.80;;;;;;4994807;28;20188;-67
2023/03/10 12:02:15;;;;;;;12.70;4.27;;;23.40;75.10;;;;;;4993506;28;20265;-65
2023/03/10 12:05:05;;;;;;;12.57;2.27;;;23.30;75.30;;;;;;4994016;28;20652;-66
2023/03/10 12:07:42;;;;;;;13.23;2.63;;;23.30;75.20;;;;;;4994409;28;20193;-67
2023/03/10 12:10:15;;;;;;;15.23;2.70;;;23.30;75.40;;;;;;4995022;28;20192;-66
2023/03/10 12:12:50;;;;;;;15.80;2.60;;;23.30;75.50;;;;;;4994226;28;20234;-66
2023/03/10 12:15:21;;;;;;;12.67;3.20;;;23.30;75.70;;;;;;4993845;28;20177;-65
2023/03/10 12:17:49;;;;;;;19.13;3.17;;;23.20;75.70;;;;;;4993956;28;20603;-65
2023/03/10 12:20:17;;;;;;;13.67;3.30;;;23.30;75.80;;;;;;4995194;28;20182;-65
2023/03/10 12:22:50;;;;;;;12.77;2.70;;;23.20;76.20;;;;;;4995061;28;20213;-66
2023/03/10 12:25:31;;;;;;;17.13;3.77;;;23.20;76.30;;;;;;4993335;28;20209;-68
2023/03/10 12:28:17;;;;;;;14.03;2.47;;;23.30;76.30;;;;;;4981614;28;20197;-73
2023/03/10 12:30:57;;;;;;;17.47;3.07;;;23.20;76.10;;;;;;4987130;28;20185;-65
2023/03/10 12:33:40;;;;;;;23.97;3.63;;;23.20;76.20;;;;;;4992823;28;20265;-66
2023/03/10 12:36:28;;;;;;;15.87;2.77;;;23.20;76.30;;;;;;4992588;28;20271;-68
2023/03/10 12:39:00;;;;;;;13.63;2.83;;;23.10;76.30;;;;;;4994213;28;20190;-66
2023/03/10 12:41:27;;;;;;;16.80;2.80;;;23.20;76.40;;;;;;4992480;28;20293;-71
2023/03/10 12:44:01;;;;;;;18.53;2.97;;;23.20;76.30;;;;;;4993271;28;20189;-70
2023/03/10 12:46:45;;;;;;;15.07;3.30;;;23.20;76.30;;;;;;4994118;28;20189;-67
2023/03/10 12:49:40;;;;;;;16.67;3.47;;;23.20;76.40;;;;;;4984210;28;20182;-71
2023/03/10 12:52:07;;;;;;;16.37;2.97;;;23.20;76.40;;;;;;4992065;28;20178;-76
2023/03/10 12:54:34;;;;;;;21.57;3.77;;;23.20;76.30;;;;;;4993342;28;20316;-67
2023/03/10 12:57:29;;;;;;;19.77;3.37;;;23.20;76.30;;;;;;4990741;28;20229;-77
2023/03/10 13:00:09;;;;;;;16.03;3.60;;;23.10;76.40;;;;;;4955623;28;20373;-67
2023/03/10 13:02:54;;;;;;;14.10;3.17;;;23.10;76.40;;;;;;4991940;28;20197;-68
2023/03/10 13:05:34;;;;;;;16.30;2.87;;;23.10;76.40;;;;;;4974061;28;20539;-72